Terminal Aerodrome Forecast
Issued by NWS

Current Version | Previous Version | Graphics & Text | Print | Product List | Glossary On
Versions: 1 2 3 4 5 6 7 8 9 10 11 12 13 14 15 16 17
000
FTUS41 KPBZ 290951 AAA
TAFMGW
TAF AMD
KMGW 290951Z 2910/3006 00000KT P6SM SCT150
     FM292100 21008KT P6SM -SHRA BKN070
     FM292300 16008KT P6SM BKN100
     FM300400 13008KT P6SM -SHRA SCT020 BKN040 PROB30 3004/3006
      16010KT 4SM -TSRA BKN040CB=

USA.gov is the U.S. government's official web portal to all federal, state and local government web resources and services.